Terminal Aerodrome Forecast
Issued by NWS

Home | Current Version | Previous Version | Text Only | Print | Product List | Glossary On
Versions: 1 2 3 4 5 6 7 8 9 10 11 12 13 14 15 16 17 18 19 20 21 22
000
FTUS42 KILM 261700
TAFCRE
TAF
KCRE 261722Z 2618/2718 18009KT P6SM SCT030 BKN040
     FM270400 23005KT P6SM FEW050
     FM271600 22013KT P6SM SCT030 SCT090 BKN250=

USA.gov is the U.S. government's official web portal to all federal, state and local government web resources and services.